createdAt,value
2022-11-03T00:01:13.341Z,100.00
2022-11-03T00:03:41.060Z,100.00
2022-11-03T00:06:09.043Z,100.00
2022-11-03T00:08:39.485Z,100.00
2022-11-03T00:11:10.199Z,100.00
2022-11-03T00:13:38.791Z,100.00
2022-11-03T00:16:09.487Z,100.00
2022-11-03T00:18:40.913Z,100.00
2022-11-03T00:21:09.864Z,100.00
2022-11-03T00:23:39.816Z,100.00
2022-11-03T00:26:09.381Z,100.00
2022-11-03T00:28:37.749Z,100.00
2022-11-03T00:31:08.389Z,100.00
2022-11-03T00:33:36.598Z,100.00
2022-11-03T00:36:04.528Z,100.00
2022-11-03T00:38:32.719Z,100.00
2022-11-03T00:41:02.737Z,100.00
2022-11-03T00:43:31.538Z,100.00
2022-11-03T00:45:59.423Z,100.00
2022-11-03T00:48:34.133Z,100.00
2022-11-03T00:51:06.165Z,100.00
2022-11-03T00:53:34.657Z,100.00
2022-11-03T00:56:04.732Z,100.00
2022-11-03T00:58:33.315Z,100.00
2022-11-03T01:01:05.893Z,100.00
2022-11-03T01:03:37.460Z,100.00
2022-11-03T01:06:24.491Z,100.00
2022-11-03T01:08:52.332Z,100.00
2022-11-03T01:11:39.799Z,100.00
2022-11-03T01:14:10.421Z,100.00
2022-11-03T01:16:39.071Z,100.00
2022-11-03T01:19:07.100Z,100.00
2022-11-03T01:21:34.780Z,100.00
2022-11-03T01:24:04.450Z,100.00
2022-11-03T01:26:33.506Z,100.00
2022-11-03T01:29:01.506Z,100.00
2022-11-03T01:31:29.567Z,100.00
2022-11-03T01:33:57.545Z,100.00
2022-11-03T01:36:25.526Z,100.00
2022-11-03T01:38:54.655Z,100.00
2022-11-03T01:41:24.514Z,100.00
2022-11-03T01:44:14.090Z,100.00
2022-11-03T01:46:43.873Z,100.00
2022-11-03T01:49:15.734Z,100.00
2022-11-03T01:51:44.572Z,100.00
2022-11-03T01:54:14.043Z,100.00
2022-11-03T01:56:43.085Z,100.00
2022-11-03T01:59:12.385Z,100.00
2022-11-03T02:01:41.404Z,100.00
2022-11-03T02:04:11.334Z,100.00
2022-11-03T02:06:39.237Z,100.00
2022-11-03T02:09:08.538Z,100.00
2022-11-03T02:11:54.686Z,100.00
2022-11-03T02:14:24.032Z,100.00
2022-11-03T02:16:54.425Z,100.00
2022-11-03T02:19:27.961Z,100.00
2022-11-03T02:22:01.276Z,100.00
2022-11-03T02:24:32.492Z,100.00
2022-11-03T02:27:01.748Z,100.00
2022-11-03T02:29:29.587Z,100.00
2022-11-03T02:32:02.212Z,100.00
2022-11-03T02:34:33.182Z,100.00
2022-11-03T02:37:04.798Z,100.00
2022-11-03T02:39:35.722Z,100.00
2022-11-03T02:42:06.336Z,100.00
2022-11-03T02:44:35.633Z,100.00
2022-11-03T02:47:05.521Z,100.00
2022-11-03T02:49:33.222Z,100.00
2022-11-03T02:52:01.437Z,100.00
2022-11-03T02:54:32.488Z,100.00
2022-11-03T02:57:02.844Z,100.00
2022-11-03T02:59:33.125Z,100.00
2022-11-03T03:02:05.042Z,100.00
2022-11-03T03:04:35.989Z,100.00
2022-11-03T03:07:06.747Z,100.00
2022-11-03T03:09:38.448Z,100.00
2022-11-03T03:12:07.897Z,100.00
2022-11-03T03:14:39.209Z,100.00
2022-11-03T03:17:10.227Z,100.00
2022-11-03T03:19:45.113Z,100.00
2022-11-03T03:22:17.296Z,100.00
2022-11-03T03:24:49.286Z,100.00
2022-11-03T03:27:19.749Z,100.00
2022-11-03T03:29:51.750Z,100.00
2022-11-03T03:32:21.948Z,100.00
2022-11-03T03:34:51.223Z,100.00
2022-11-03T03:37:21.356Z,100.00
2022-11-03T03:39:51.646Z,100.00
2022-11-03T03:42:21.579Z,100.00
2022-11-03T03:44:53.589Z,100.00
2022-11-03T03:47:24.237Z,100.00
2022-11-03T03:49:52.174Z,100.00
2022-11-03T03:52:20.429Z,100.00
2022-11-03T03:54:50.444Z,100.00
2022-11-03T03:57:19.606Z,100.00
2022-11-03T03:59:47.546Z,100.00
2022-11-03T04:02:17.339Z,100.00
2022-11-03T04:04:45.427Z,100.00
2022-11-03T04:07:30.676Z,100.00
2022-11-03T04:09:58.856Z,100.00
2022-11-03T04:12:44.218Z,100.00
2022-11-03T04:15:31.338Z,100.00
2022-11-03T04:18:20.188Z,100.00
2022-11-03T04:21:05.588Z,100.00
2022-11-03T04:23:33.754Z,100.00
2022-11-03T04:26:02.224Z,100.00
2022-11-03T04:28:30.628Z,100.00
2022-11-03T04:30:59.717Z,100.00
2022-11-03T04:33:30.270Z,100.00
2022-11-03T04:35:59.346Z,100.00
2022-11-03T04:38:27.696Z,100.00
2022-11-03T04:40:56.460Z,100.00
2022-11-03T04:43:26.001Z,100.00
2022-11-03T04:45:54.408Z,100.00
2022-11-03T04:48:23.497Z,100.00
2022-11-03T04:50:54.637Z,100.00
2022-11-03T04:53:23.675Z,100.00
2022-11-03T04:55:54.214Z,100.00
2022-11-03T04:58:23.087Z,100.00
2022-11-03T05:00:52.675Z,100.00
2022-11-03T05:03:23.977Z,100.00
2022-11-03T05:05:53.523Z,100.00
2022-11-03T05:08:22.591Z,100.00
2022-11-03T05:10:50.773Z,100.00
2022-11-03T05:13:22.293Z,100.00
2022-11-03T05:15:51.118Z,100.00
2022-11-03T05:18:28.675Z,100.00
2022-11-03T05:20:59.582Z,100.00
2022-11-03T05:23:29.008Z,100.00
2022-11-03T05:25:58.532Z,100.00
2022-11-03T05:28:28.056Z,100.00
2022-11-03T05:30:56.215Z,100.00
2022-11-03T05:33:28.152Z,100.00
2022-11-03T05:35:56.702Z,100.00
2022-11-03T05:38:26.919Z,100.00
2022-11-03T05:40:55.416Z,100.00
2022-11-03T05:43:23.462Z,100.00
2022-11-03T05:45:52.261Z,100.00
2022-11-03T05:48:24.007Z,100.00
2022-11-03T05:50:51.982Z,100.00
2022-11-03T05:53:26.906Z,100.00
2022-11-03T05:55:56.781Z,100.00
2022-11-03T05:58:27.011Z,100.00
2022-11-03T06:00:57.647Z,100.00
2022-11-03T06:03:26.618Z,100.00
2022-11-03T06:05:55.161Z,100.00
2022-11-03T06:08:25.695Z,100.00
2022-11-03T06:10:54.988Z,100.00
2022-11-03T06:13:26.931Z,100.00
2022-11-03T06:15:56.989Z,100.00
2022-11-03T06:18:27.275Z,100.00
2022-11-03T06:20:57.965Z,100.00
2022-11-03T06:23:26.360Z,100.00
2022-11-03T06:25:55.466Z,100.00
2022-11-03T06:28:27.920Z,100.00
2022-11-03T06:30:56.019Z,100.00
2022-11-03T06:33:27.000Z,100.00
2022-11-03T06:35:55.581Z,100.00
2022-11-03T06:38:24.825Z,100.00
2022-11-03T06:40:53.200Z,100.00
2022-11-03T06:43:22.689Z,100.00
2022-11-03T06:45:53.817Z,100.00
2022-11-03T06:48:24.431Z,100.00
2022-11-03T06:50:52.811Z,100.00
2022-11-03T06:53:22.765Z,100.00
2022-11-03T06:55:51.566Z,100.00
2022-11-03T06:58:23.550Z,100.00
2022-11-03T07:00:52.961Z,100.00
2022-11-03T07:03:24.283Z,100.00
2022-11-03T07:05:54.678Z,100.00
2022-11-03T07:08:25.613Z,100.00
2022-11-03T07:11:01.139Z,100.00
2022-11-03T07:13:28.993Z,100.00
2022-11-03T07:15:58.237Z,100.00
2022-11-03T07:18:28.251Z,100.00
2022-11-03T07:20:57.082Z,100.00
2022-11-03T07:23:27.693Z,100.00
2022-11-03T07:25:58.017Z,100.00
2022-11-03T07:28:30.179Z,100.00
2022-11-03T07:31:00.376Z,100.00
2022-11-03T07:33:31.201Z,100.00
2022-11-03T07:36:16.887Z,100.00
2022-11-03T07:38:46.191Z,100.00
2022-11-03T07:41:18.548Z,100.00
2022-11-03T07:43:50.458Z,100.00
2022-11-03T07:46:21.334Z,100.00
2022-11-03T07:48:49.902Z,98.94
2022-11-03T07:51:21.399Z,100.00
2022-11-03T07:53:51.301Z,100.00
2022-11-03T07:56:20.886Z,100.00
2022-11-03T07:58:51.037Z,100.00
2022-11-03T08:01:28.294Z,96.74
2022-11-03T08:03:58.350Z,97.65
2022-11-03T08:06:26.031Z,97.91
2022-11-03T08:08:53.812Z,93.91
2022-11-03T08:11:26.072Z,88.71
2022-11-03T08:13:57.139Z,81.87
2022-11-03T08:16:25.012Z,78.52
2022-11-03T08:18:54.402Z,79.24
2022-11-03T08:21:22.993Z,81.00
2022-11-03T08:23:50.907Z,80.28
2022-11-03T08:26:19.182Z,80.79
2022-11-03T08:28:47.230Z,81.56
2022-11-03T08:31:15.207Z,82.71
2022-11-03T08:33:43.368Z,84.08
2022-11-03T08:36:13.150Z,82.85
2022-11-03T08:38:41.474Z,78.95
2022-11-03T08:41:09.316Z,75.94
2022-11-03T08:43:37.504Z,77.30
2022-11-03T08:46:13.914Z,77.53
2022-11-03T08:48:45.501Z,75.89
2022-11-03T08:51:15.498Z,73.16
2022-11-03T08:53:43.788Z,70.51
2022-11-03T08:56:13.176Z,70.48
2022-11-03T08:58:42.806Z,61.48
2022-11-03T09:01:11.136Z,62.19
2022-11-03T09:03:39.168Z,59.47
2022-11-03T09:06:07.763Z,58.18
2022-11-03T09:11:24.875Z,58.71
2022-11-03T09:13:53.001Z,59.22
2022-11-03T09:16:22.049Z,67.29
2022-11-03T09:18:50.039Z,72.34
2022-11-03T09:21:18.631Z,75.87
2022-11-03T09:23:47.736Z,82.55
2022-11-03T09:26:15.993Z,80.79
2022-11-03T09:28:44.087Z,82.57
2022-11-03T09:31:12.060Z,81.57
2022-11-03T09:33:40.072Z,81.78
2022-11-03T09:36:08.677Z,80.25
2022-11-03T09:38:36.615Z,80.20
2022-11-03T09:41:18.687Z,83.19
2022-11-03T09:43:54.809Z,83.40
2022-11-03T09:46:22.506Z,79.05
2022-11-03T09:48:52.803Z,77.24
2022-11-03T09:51:24.199Z,74.74
2022-11-03T09:53:52.674Z,72.27
2022-11-03T09:56:23.575Z,70.53
2022-11-03T09:58:54.582Z,66.40
2022-11-03T10:01:23.192Z,66.44
2022-11-03T10:03:51.168Z,65.69
2022-11-03T10:06:21.533Z,65.17
2022-11-03T10:08:50.394Z,63.15
2022-11-03T10:11:18.763Z,60.58
2022-11-03T10:13:50.596Z,55.66
2022-11-03T10:16:20.370Z,53.63
2022-11-03T10:18:49.575Z,51.91
2022-11-03T10:21:20.328Z,51.30
2022-11-03T10:23:50.317Z,51.52
2022-11-03T10:26:19.708Z,47.91
2022-11-03T10:29:02.289Z,46.54
2022-11-03T10:31:34.779Z,51.31
2022-11-03T10:34:03.054Z,54.88
2022-11-03T10:36:32.212Z,51.92
2022-11-03T10:39:01.878Z,52.22
2022-11-03T10:41:30.880Z,54.80
2022-11-03T10:44:04.650Z,55.34
2022-11-03T10:49:21.861Z,49.58
2022-11-03T10:51:51.035Z,45.02
2022-11-03T10:54:20.434Z,45.18
2022-11-03T10:56:49.636Z,44.56
2022-11-03T10:59:20.486Z,46.95
2022-11-03T11:01:48.913Z,49.84
2022-11-03T11:04:18.137Z,51.77
2022-11-03T11:06:47.194Z,52.77
2022-11-03T11:09:16.952Z,53.32
2022-11-03T11:12:00.052Z,54.95
2022-11-03T11:14:39.464Z,55.68
2022-11-03T11:17:07.825Z,54.36
2022-11-03T11:19:50.818Z,54.39
2022-11-03T11:22:23.079Z,56.32
2022-11-03T11:24:58.865Z,56.87
2022-11-03T11:27:46.406Z,56.32
2022-11-03T11:30:29.401Z,55.99
2022-11-03T11:33:02.225Z,57.75
2022-11-03T11:35:49.130Z,55.67
2022-11-03T11:38:35.773Z,56.61
2022-11-03T11:41:03.748Z,56.42
2022-11-03T11:43:33.664Z,54.81
2022-11-03T11:46:20.317Z,55.73
2022-11-03T11:48:53.345Z,56.28
2022-11-03T11:51:21.369Z,59.02
2022-11-03T11:53:58.739Z,58.93
2022-11-03T11:56:43.337Z,61.15
2022-11-03T11:59:23.003Z,62.99
2022-11-03T12:01:53.443Z,64.03
2022-11-03T12:04:25.527Z,63.69
2022-11-03T12:06:53.861Z,64.18
2022-11-03T12:09:22.837Z,63.71
2022-11-03T12:11:55.418Z,67.18
2022-11-03T12:14:24.752Z,67.25
2022-11-03T12:16:53.127Z,68.60
2022-11-03T12:19:39.348Z,65.71
2022-11-03T12:22:09.017Z,64.29
2022-11-03T12:24:38.626Z,62.29
2022-11-03T12:27:19.609Z,61.34
2022-11-03T12:29:48.148Z,61.45
2022-11-03T12:32:32.378Z,60.32
2022-11-03T12:35:04.115Z,60.04
2022-11-03T12:37:32.026Z,59.43
2022-11-03T12:40:00.300Z,58.88
2022-11-03T12:42:28.653Z,57.12
2022-11-03T12:44:56.677Z,57.75
2022-11-03T12:47:25.589Z,56.81
2022-11-03T12:49:53.576Z,55.46
2022-11-03T12:52:23.313Z,52.38
2022-11-03T12:54:51.348Z,50.57
2022-11-03T12:57:19.549Z,50.62
2022-11-03T12:59:47.616Z,52.30
2022-11-03T13:02:15.671Z,55.07
2022-11-03T13:04:43.953Z,57.69
2022-11-03T13:07:11.591Z,59.02
2022-11-03T13:09:40.834Z,59.58
2022-11-03T13:12:30.247Z,59.98
2022-11-03T13:14:58.276Z,59.51
2022-11-03T13:17:31.796Z,59.05
2022-11-03T13:20:05.431Z,60.36
2022-11-03T13:22:33.487Z,61.74
2022-11-03T13:25:03.002Z,63.44
2022-11-03T13:27:30.765Z,64.37
2022-11-03T13:29:58.591Z,66.75
2022-11-03T13:32:26.660Z,65.00
2022-11-03T13:34:55.468Z,65.79
2022-11-03T13:37:23.308Z,66.60
2022-11-03T13:39:51.332Z,66.63
2022-11-03T13:42:20.559Z,66.28
2022-11-03T13:44:48.155Z,67.75
2022-11-03T13:47:15.870Z,67.61
2022-11-03T13:50:12.598Z,71.17
2022-11-03T13:52:32.018Z,71.40
2022-11-03T14:00:37.474Z,72.58
2022-11-03T14:05:54.236Z,71.71
2022-11-03T14:08:23.328Z,73.08
2022-11-03T14:10:51.427Z,74.48
2022-11-03T14:13:21.830Z,75.39
2022-11-03T14:15:50.701Z,74.00
2022-11-03T14:18:20.011Z,74.86
2022-11-03T14:20:49.178Z,72.94
2022-11-03T14:23:17.006Z,72.49
2022-11-03T14:25:55.730Z,71.66
2022-11-03T14:28:35.860Z,72.38
2022-11-03T14:31:05.802Z,72.30
2022-11-03T14:33:33.681Z,73.41
2022-11-03T14:36:01.690Z,74.66
2022-11-03T14:38:29.703Z,75.59
2022-11-03T14:41:11.531Z,76.71
2022-11-03T14:43:57.955Z,80.83
2022-11-03T14:46:28.970Z,81.71
2022-11-03T14:48:56.978Z,85.10
2022-11-03T14:51:24.733Z,86.22
2022-11-03T14:53:52.841Z,86.15
2022-11-03T14:56:21.785Z,85.92
2022-11-03T14:58:51.903Z,85.48
2022-11-03T15:01:20.913Z,83.92
2022-11-03T15:03:53.831Z,83.69
2022-11-03T15:06:21.639Z,89.15
2022-11-03T15:08:55.038Z,93.20
2022-11-03T15:11:23.782Z,94.84
2022-11-03T15:13:52.793Z,94.53
2022-11-03T15:16:23.017Z,93.82
2022-11-03T15:18:56.283Z,95.87
2022-11-03T15:21:23.900Z,99.66
2022-11-03T15:26:39.592Z,99.88
2022-11-03T15:29:10.406Z,100.00
2022-11-03T15:31:39.385Z,100.00
2022-11-03T15:34:09.019Z,100.00
2022-11-03T15:36:38.211Z,100.00
2022-11-03T15:39:05.977Z,100.00
2022-11-03T15:41:33.990Z,100.00
2022-11-03T15:44:03.212Z,100.00
2022-11-03T15:46:33.614Z,100.00
2022-11-03T15:49:01.552Z,100.00
2022-11-03T15:51:30.799Z,100.00
2022-11-03T15:53:59.447Z,100.00
2022-11-03T15:56:28.095Z,100.00
2022-11-03T15:58:56.269Z,100.00
2022-11-03T16:01:38.151Z,98.26
2022-11-03T16:04:05.937Z,98.95
2022-11-03T16:07:01.815Z,99.33
2022-11-03T16:09:23.128Z,100.00
2022-11-03T16:11:50.954Z,100.00
2022-11-03T16:14:19.416Z,100.00
2022-11-03T16:16:47.178Z,100.00
2022-11-03T16:19:14.930Z,100.00
2022-11-03T16:21:44.013Z,100.00
2022-11-03T16:24:13.521Z,100.00
2022-11-03T16:26:41.290Z,100.00
2022-11-03T16:29:09.378Z,98.93
2022-11-03T16:31:37.196Z,97.54
2022-11-03T16:34:05.616Z,96.73
2022-11-03T16:36:33.342Z,96.06
2022-11-03T16:39:02.506Z,95.62
2022-11-03T16:41:30.194Z,95.71
2022-11-03T16:43:58.011Z,95.48
2022-11-03T16:46:25.955Z,96.24
2022-11-03T16:48:55.529Z,98.49
2022-11-03T16:51:24.477Z,99.24
2022-11-03T16:53:55.110Z,99.78
2022-11-03T16:56:24.427Z,99.96
2022-11-03T16:58:52.200Z,100.00
2022-11-03T17:01:21.229Z,99.59
2022-11-03T17:03:48.945Z,99.95
2022-11-03T17:06:16.684Z,100.00
2022-11-03T17:08:52.733Z,100.00
2022-11-03T17:11:36.242Z,100.00
2022-11-03T17:14:08.080Z,100.00
2022-11-03T17:16:37.175Z,100.00
2022-11-03T17:19:05.152Z,100.00
2022-11-03T17:21:34.760Z,100.00
2022-11-03T17:24:03.828Z,100.00
2022-11-03T17:26:40.371Z,100.00
2022-11-03T17:29:16.611Z,100.00
2022-11-03T17:31:44.818Z,100.00
2022-11-03T17:34:12.976Z,100.00
2022-11-03T17:36:41.344Z,100.00
2022-11-03T17:39:09.797Z,100.00
2022-11-03T17:41:37.894Z,100.00
2022-11-03T17:44:09.663Z,100.00
2022-11-03T17:46:38.763Z,100.00
2022-11-03T17:49:07.927Z,100.00
2022-11-03T17:51:39.051Z,100.00
2022-11-03T17:54:08.429Z,100.00
2022-11-03T17:56:36.531Z,100.00
2022-11-03T17:59:04.686Z,100.00
2022-11-03T18:01:32.574Z,100.00
2022-11-03T18:04:02.793Z,100.00
2022-11-03T18:06:30.776Z,100.00
2022-11-03T18:08:59.307Z,100.00
2022-11-03T18:11:46.456Z,100.00
2022-11-03T18:14:18.234Z,100.00
2022-11-03T18:16:46.299Z,100.00
2022-11-03T18:19:16.270Z,100.00
2022-11-03T18:21:44.043Z,100.00
2022-11-03T18:24:13.011Z,100.00
2022-11-03T18:26:41.210Z,100.00
2022-11-03T18:29:09.828Z,100.00
2022-11-03T18:31:38.950Z,100.00
2022-11-03T18:34:07.635Z,100.00
2022-11-03T18:36:38.262Z,100.00
2022-11-03T18:39:06.478Z,100.00
2022-11-03T18:41:39.207Z,100.00
2022-11-03T18:44:18.295Z,100.00
2022-11-03T18:46:46.124Z,100.00
2022-11-03T18:49:14.201Z,100.00
2022-11-03T18:51:45.971Z,100.00
2022-11-03T18:54:15.569Z,100.00
2022-11-03T18:56:43.490Z,100.00
2022-11-03T18:59:17.341Z,100.00
2022-11-03T19:01:47.607Z,100.00
2022-11-03T19:04:17.619Z,100.00
2022-11-03T19:06:47.940Z,100.00
2022-11-03T19:09:17.139Z,100.00
2022-11-03T19:11:45.649Z,100.00
2022-11-03T19:14:15.163Z,100.00
2022-11-03T19:16:55.726Z,100.00
2022-11-03T19:19:31.454Z,100.00
2022-11-03T19:22:00.635Z,100.00
2022-11-03T19:24:28.215Z,100.00
2022-11-03T19:26:58.705Z,100.00
2022-11-03T19:29:28.803Z,100.00
2022-11-03T19:31:56.860Z,100.00
2022-11-03T19:34:27.621Z,100.00
2022-11-03T19:36:57.984Z,100.00
2022-11-03T19:39:29.333Z,100.00
2022-11-03T19:42:14.926Z,100.00
2022-11-03T19:44:42.558Z,100.00
2022-11-03T19:47:11.816Z,100.00
2022-11-03T19:49:39.542Z,100.00
2022-11-03T19:52:09.293Z,100.00
2022-11-03T19:54:41.357Z,100.00
2022-11-03T19:57:11.489Z,100.00
2022-11-03T19:59:39.154Z,100.00
2022-11-03T20:02:08.193Z,100.00
2022-11-03T20:04:37.039Z,100.00
2022-11-03T20:07:05.591Z,100.00
2022-11-03T20:09:34.553Z,100.00
2022-11-03T20:12:05.512Z,100.00
2022-11-03T20:14:33.475Z,100.00
2022-11-03T20:17:09.953Z,100.00
2022-11-03T20:19:37.699Z,100.00
2022-11-03T20:22:06.246Z,100.00
2022-11-03T20:24:34.477Z,100.00
2022-11-03T20:27:02.276Z,100.00
2022-11-03T20:29:34.763Z,100.00
2022-11-03T20:32:03.878Z,100.00
2022-11-03T20:34:31.671Z,100.00
2022-11-03T20:37:04.666Z,100.00
2022-11-03T20:39:33.488Z,100.00
2022-11-03T20:42:01.217Z,100.00
2022-11-03T20:44:28.831Z,100.00
2022-11-03T20:46:57.967Z,100.00
2022-11-03T20:49:26.779Z,100.00
2022-11-03T20:51:54.974Z,100.00
2022-11-03T20:54:23.042Z,100.00
2022-11-03T20:56:51.007Z,100.00
2022-11-03T20:59:21.365Z,100.00
2022-11-03T21:01:50.180Z,100.00
2022-11-03T21:04:21.032Z,100.00
2022-11-03T21:06:48.943Z,100.00
2022-11-03T21:09:17.837Z,100.00
2022-11-03T21:11:46.344Z,100.00
2022-11-03T21:14:22.455Z,100.00
2022-11-03T21:17:08.249Z,100.00
2022-11-03T21:19:54.803Z,100.00
2022-11-03T21:22:52.091Z,100.00
2022-11-03T21:25:13.411Z,100.00
2022-11-03T21:27:42.146Z,100.00
2022-11-03T21:30:12.471Z,100.00
2022-11-03T21:32:40.217Z,100.00
2022-11-03T21:35:11.937Z,100.00
2022-11-03T21:37:39.939Z,100.00
2022-11-03T21:40:08.191Z,100.00
2022-11-03T21:42:53.528Z,100.00
2022-11-03T21:45:21.649Z,100.00
2022-11-03T21:48:03.509Z,100.00
2022-11-03T21:50:32.788Z,100.00
2022-11-03T21:53:03.117Z,100.00
2022-11-03T21:55:30.688Z,100.00
2022-11-03T21:57:58.411Z,100.00
2022-11-03T22:00:26.027Z,100.00
2022-11-03T22:02:54.008Z,100.00
2022-11-03T22:05:21.643Z,100.00
2022-11-03T22:07:50.675Z,100.00
2022-11-03T22:10:18.796Z,100.00
2022-11-03T22:12:46.595Z,100.00
2022-11-03T22:15:33.021Z,100.00
2022-11-03T22:18:01.249Z,100.00
2022-11-03T22:20:46.557Z,100.00
2022-11-03T22:23:34.233Z,100.00
2022-11-03T22:26:19.975Z,100.00
2022-11-03T22:29:07.696Z,100.00
2022-11-03T22:31:43.930Z,100.00
2022-11-03T22:34:29.233Z,100.00
2022-11-03T22:36:59.569Z,100.00
2022-11-03T22:39:46.384Z,100.00
2022-11-03T22:42:31.890Z,100.00
2022-11-03T22:45:17.612Z,100.00
2022-11-03T22:47:45.335Z,100.00
2022-11-03T22:50:12.877Z,100.00
2022-11-03T22:52:40.707Z,100.00
2022-11-03T22:55:09.240Z,100.00
2022-11-03T22:57:37.030Z,100.00
2022-11-03T23:00:07.183Z,100.00
2022-11-03T23:02:35.118Z,100.00
2022-11-03T23:27:11.352Z,100.00
2022-11-03T23:29:39.312Z,100.00
2022-11-03T23:32:07.116Z,100.00
2022-11-03T23:34:36.015Z,100.00
2022-11-03T23:37:04.101Z,100.00
2022-11-03T23:39:32.104Z,100.00
2022-11-03T23:41:59.871Z,100.00
2022-11-03T23:44:49.274Z,100.00
2022-11-03T23:47:34.595Z,100.00
2022-11-03T23:50:02.544Z,100.00
2022-11-03T23:52:30.379Z,100.00
2022-11-03T23:54:57.941Z,100.00
2022-11-03T23:57:42.924Z,100.00
